Berga II — 7TQI — position and weather

sailwx.info

Track history (hours):
 
Tides and Currents Weather Stations Pressure Air Temp Water Temp Dewpoint Dewpoint Depression Visibility Wind Speed Wind Dir Waves Ship Positions

Berga II

Last reported at 2018-Dec-14 03:45 UTC. Time now 2018-Dec-17 19:38 UTC.
Position N 37°23' W 001°03'.

Length 174 m; draft 7 m.

Type: Ship (hazmat cat B). MMSI: 605076051.

Date/timePositionNaut miles runAvg speedWind from/ knotsBaromVisibWave heightAir tempDewpointWater temp
2018-Dec-14 03:45N 37°23' W 001°03'1114.8
2018-Dec-14 03:00N 37°28' W 000°51'714.4
2018-Dec-14 02:30N 37°31' W 000°42'714.8
2018-Dec-14 02:01N 37°34' W 000°34'816.1
2018-Dec-14 01:30N 37°41' W 000°29'916.5
2018-Dec-14 00:59N 37°49' W 000°25'816.7
2018-Dec-14 00:31N 37°56' W 000°21'  
2018-Dec-05 06:20N 40°20' E 001°24'7514.9
2018-Dec-05 01:18N 39°10' E 000°48'515.4
2018-Dec-05 00:57N 39°05' E 000°46'1415.5
2018-Dec-05 00:02N 38°52' E 000°39'115.6
2018-Dec-04 23:59N 38°51' E 000°39'715.3
2018-Dec-04 23:31N 38°44' E 000°36'1715.3
2018-Dec-04 22:22N 38°27' E 000°31'915.2
2018-Dec-04 21:48N 38°19' E 000°28'515.4
2018-Dec-04 21:30N 38°14' E 000°27'815.5
2018-Dec-04 21:01N 38°07' E 000°25'815.6
2018-Dec-04 20:30N 37°59' E 000°23'715.3
2018-Dec-04 20:01N 37°52' E 000°21'815.2
2018-Dec-04 19:31N 37°44' E 000°19'815.2
2018-Dec-04 19:01N 37°37' E 000°17'714.7
2018-Dec-04 18:30N 37°30' E 000°15'714.7
2018-Dec-04 18:00N 37°23' E 000°13'714.9
2018-Dec-04 17:30N 37°15' E 000°11'815.4
2018-Dec-04 17:00N 37°08' E 000°09'815.5
2018-Dec-04 16:31N 37°00' E 000°08'714.7
2018-Dec-04 16:00N 36°53' E 000°09'1 2.4
2018-Dec-04 15:30N 36°52' E 000°10'1 1.6
2018-Dec-04 15:00N 36°51' E 000°09'1 2.2
2018-Dec-04 14:30N 36°50' E 000°09'3 5.5
2018-Dec-04 14:01N 36°48' E 000°07'915.9
2018-Dec-04 13:28N 36°40' E 000°02'  
Track history (hours):
 
Tides and Currents Weather Stations Pressure Air Temp Water Temp Dewpoint Dewpoint Depression Visibility Wind Speed Wind Dir Waves Ship Positions

Berga II

Last reported at 2018-Dec-14 03:45 UTC. Time now 2018-Dec-17 19:38 UTC.
Position N 37°23' W 001°03'.

Length 174 m; draft 7 m.

Type: Ship (hazmat cat B). MMSI: 605076051.

Date/timePositionNaut miles runAvg speedWind from/ knotsBaromVisibWave heightAir tempDewpointWater temp
2018-Dec-14 03:45N 37°23' W 001°03'1114.8
2018-Dec-14 03:00N 37°28' W 000°51'714.4
2018-Dec-14 02:30N 37°31' W 000°42'714.8
2018-Dec-14 02:01N 37°34' W 000°34'816.1
2018-Dec-14 01:30N 37°41' W 000°29'916.5
2018-Dec-14 00:59N 37°49' W 000°25'816.7
2018-Dec-14 00:31N 37°56' W 000°21'  
2018-Dec-05 06:20N 40°20' E 001°24'7514.9
2018-Dec-05 01:18N 39°10' E 000°48'515.4
2018-Dec-05 00:57N 39°05' E 000°46'1415.5
2018-Dec-05 00:02N 38°52' E 000°39'115.6
2018-Dec-04 23:59N 38°51' E 000°39'715.3
2018-Dec-04 23:31N 38°44' E 000°36'1715.3
2018-Dec-04 22:22N 38°27' E 000°31'915.2
2018-Dec-04 21:48N 38°19' E 000°28'515.4
2018-Dec-04 21:30N 38°14' E 000°27'815.5
2018-Dec-04 21:01N 38°07' E 000°25'815.6
2018-Dec-04 20:30N 37°59' E 000°23'715.3
2018-Dec-04 20:01N 37°52' E 000°21'815.2
2018-Dec-04 19:31N 37°44' E 000°19'815.2
2018-Dec-04 19:01N 37°37' E 000°17'714.7
2018-Dec-04 18:30N 37°30' E 000°15'714.7
2018-Dec-04 18:00N 37°23' E 000°13'714.9
2018-Dec-04 17:30N 37°15' E 000°11'815.4
2018-Dec-04 17:00N 37°08' E 000°09'815.5
2018-Dec-04 16:31N 37°00' E 000°08'714.7
2018-Dec-04 16:00N 36°53' E 000°09'1 2.4
2018-Dec-04 15:30N 36°52' E 000°10'1 1.6
2018-Dec-04 15:00N 36°51' E 000°09'1 2.2
2018-Dec-04 14:30N 36°50' E 000°09'3 5.5
2018-Dec-04 14:01N 36°48' E 000°07'915.9
2018-Dec-04 13:28N 36°40' E 000°02'  

Dump ship's entire track history